Sunday, August 19, 2018, 12:28 AM GMT
Back to Local

CWPK, Parent, Que.

Location: , , Canada Lat: 47.917
Local Time: 12:28 AM GMT ( 0:28 GMT) Lon: -74.617
Time Zone: GMT Elev: 1450 ft

Show me the last for .
Show Coded

Time T Td Feel RH Dir Speed Gust Alt SLP Vis Weather Sky Remarks
2018-08-19 00:00 59 48 - 67 20° 2 - - 30.02 0 None
2018-08-18 23:00 68 45 - 43 10° 2 - - 30.01 0 None
2018-08-18 22:00 71 44 - 39 20° 2 - - 30.00 0 None
2018-08-18 21:00 71 43 - 35 40° 3 - - 29.99 0 None
2018-08-18 19:00 71 42 - 35 360° 5 - - 30.00 0 None
2018-08-18 18:00 70 48 75 45 30° 5 - - 30.01 0 None
2018-08-18 17:00 69 46 - 43 50° 6 - - 30.01 0 None
2018-08-18 16:00 65 49 - 54 10° 5 - - 30.02 0 None
2018-08-18 15:00 65 50 - 56 20° 3 - - 30.03 0 None
2018-08-18 14:00 64 53 - 68 350° 5 - - 30.03 0 None
2018-08-18 13:00 60 53 - 76 330° 3 - - 30.02 0 None
2018-08-18 12:00 57 53 - 86 350° 2 - - 30.02 0 None
2018-08-18 11:00 56 54 - 92 340° 2 - - 30.01 0 None
2018-08-18 10:00 56 56 - 97 340° 2 - - 30.01 0 None
2018-08-18 09:00 57 56 - 98 330° 2 - - 29.99 0 None
2018-08-18 08:00 57 56 - 98 300° 2 - - 29.98 0 None
2018-08-18 07:00 56 56 - 98 300° 1 - - 29.99 0 None
2018-08-18 06:00 55 55 - 98 310° 3 - - 29.98 0 None
2018-08-18 05:00 55 55 - 98 300° 1 - - 29.98 0 None
2018-08-18 04:00 55 55 - 98 320° 1 - - 29.97 0 None
2018-08-18 03:00 55 53 - 91 320° 2 - - 29.98 0 None
2018-08-18 02:00 56 55 - 98 - Calm - - 29.99 0 None
2018-08-18 01:00 57 56 - 97 310° 2 - - 30.00 0 None

Support USWX by starting your Amazon purchase here.